createdAt,value
2022-10-16T00:02:40.515Z,95702.88
2022-10-16T00:07:41.958Z,95703.56
2022-10-16T00:12:43.356Z,95707.88
2022-10-16T00:17:44.758Z,95709.84
2022-10-16T00:22:46.202Z,95714.88
2022-10-16T00:27:47.762Z,95714.03
2022-10-16T00:32:49.214Z,95706.41
2022-10-16T00:37:50.593Z,95697.09
2022-10-16T00:42:51.995Z,95690.78
2022-10-16T00:47:55.900Z,95695.72
2022-10-16T00:52:59.263Z,95702.84
2022-10-16T00:58:00.702Z,95690.66
2022-10-16T01:03:03.494Z,95688.66
2022-10-16T01:08:19.576Z,95701.16
2022-10-16T01:13:38.138Z,95712.94
2022-10-16T01:18:50.448Z,95712.91
2022-10-16T01:24:24.061Z,95716.56
2022-10-16T01:29:31.047Z,95717.75
2022-10-16T01:34:55.058Z,95710.63
2022-10-16T01:39:59.994Z,95706.47
2022-10-16T01:45:02.905Z,95703.59
2022-10-16T01:50:06.887Z,95717.03
2022-10-16T01:55:11.177Z,95716.69
2022-10-16T02:00:15.029Z,95716.84
2022-10-16T02:05:23.070Z,95723.66
2022-10-16T02:10:25.939Z,95720.16
2022-10-16T02:15:27.428Z,95719.16
2022-10-16T02:20:35.383Z,95722.34
2022-10-16T02:25:41.025Z,95721.34
2022-10-16T02:30:51.223Z,95715.06
2022-10-16T02:35:54.106Z,95711.53
2022-10-16T02:40:56.086Z,95728.28
2022-10-16T02:45:57.513Z,95725.47
2022-10-16T02:50:58.937Z,95724.34
2022-10-16T02:56:00.339Z,95735.09
2022-10-16T03:01:01.873Z,95738.09
2022-10-16T03:06:03.501Z,95739.00
2022-10-16T03:11:05.294Z,95728.44
2022-10-16T03:16:06.788Z,95713.84
2022-10-16T03:21:08.374Z,95705.03
2022-10-16T03:26:09.812Z,95702.34
2022-10-16T03:31:11.233Z,95715.53
2022-10-16T03:36:12.685Z,95718.31
2022-10-16T03:41:14.212Z,95732.84
2022-10-16T03:46:15.633Z,95736.16
2022-10-16T03:51:17.106Z,95742.75
2022-10-16T03:56:18.650Z,95751.06
2022-10-16T04:01:20.185Z,95760.06
2022-10-16T04:06:21.681Z,95760.34
2022-10-16T04:11:23.280Z,95760.28
2022-10-16T04:16:24.699Z,95754.75
2022-10-16T04:21:27.177Z,95758.59
2022-10-16T04:26:28.738Z,95760.53
2022-10-16T04:31:30.306Z,95768.19
2022-10-16T04:36:31.698Z,95766.72
2022-10-16T04:41:33.162Z,95765.34
2022-10-16T04:46:34.752Z,95770.81
2022-10-16T04:51:36.179Z,95764.34
2022-10-16T04:56:37.846Z,95778.44
2022-10-16T05:01:39.523Z,95771.13
2022-10-16T05:06:40.928Z,95780.09
2022-10-16T05:11:42.340Z,95783.50
2022-10-16T05:16:43.801Z,95790.81
2022-10-16T05:21:45.246Z,95797.50
2022-10-16T05:26:47.337Z,95788.50
2022-10-16T05:31:54.167Z,95801.59
2022-10-16T05:36:55.569Z,95812.72
2022-10-16T05:41:57.023Z,95797.16
2022-10-16T05:46:58.838Z,95793.78
2022-10-16T05:52:00.244Z,95791.59
2022-10-16T05:57:01.627Z,95797.63
2022-10-16T06:02:03.191Z,95805.28
2022-10-16T06:07:04.619Z,95807.91
2022-10-16T06:12:06.024Z,95817.56
2022-10-16T06:17:07.555Z,95816.44
2022-10-16T06:22:09.072Z,95823.41
2022-10-16T06:27:10.470Z,95829.72
2022-10-16T06:32:11.859Z,95836.72
2022-10-16T06:37:13.238Z,95842.16
2022-10-16T06:42:14.657Z,95853.91
2022-10-16T06:47:16.287Z,95852.09
2022-10-16T06:52:17.687Z,95854.25
2022-10-16T06:57:19.114Z,95861.97
2022-10-16T07:02:20.561Z,95870.63
2022-10-16T07:07:21.963Z,95879.31
2022-10-16T07:12:23.628Z,95873.50
2022-10-16T07:17:25.148Z,95892.59
2022-10-16T07:22:26.836Z,95888.47
2022-10-16T07:27:29.186Z,95893.28
2022-10-16T07:32:30.672Z,95917.56
2022-10-16T07:37:32.121Z,95922.38
2022-10-16T07:42:33.520Z,95919.06
2022-10-16T07:47:34.923Z,95924.72
2022-10-16T07:52:36.298Z,95921.72
2022-10-16T07:57:37.703Z,95924.72
2022-10-16T08:02:39.133Z,95941.69
2022-10-16T08:07:40.539Z,95954.66
2022-10-16T08:12:41.937Z,95941.03
2022-10-16T08:17:43.435Z,95949.03
2022-10-16T08:22:44.884Z,95957.47
2022-10-16T08:27:46.302Z,95959.50
2022-10-16T08:32:47.820Z,95957.94
2022-10-16T08:37:49.215Z,95952.59
2022-10-16T08:42:56.635Z,95962.78
2022-10-16T08:48:15.823Z,95962.19
2022-10-16T08:53:43.571Z,95972.28
2022-10-16T09:04:15.256Z,95970.25
2022-10-16T09:09:35.852Z,95978.25
2022-10-16T09:15:06.694Z,95983.34
2022-10-16T09:20:16.946Z,95970.78
2022-10-16T09:25:22.430Z,95974.50
2022-10-16T09:30:28.730Z,95984.03
2022-10-16T09:35:39.918Z,95981.16
2022-10-16T09:40:43.384Z,95983.44
2022-10-16T09:45:54.488Z,95985.91
2022-10-16T09:51:00.947Z,95979.47
2022-10-16T09:56:02.368Z,95968.50
2022-10-16T10:01:03.891Z,95981.34
2022-10-16T10:06:19.395Z,95976.19
2022-10-16T10:11:44.862Z,95982.94
2022-10-16T10:16:46.584Z,95985.44
2022-10-16T10:21:48.926Z,95978.88
2022-10-16T10:27:01.133Z,95971.97
2022-10-16T10:32:17.132Z,95966.63
2022-10-16T10:37:46.574Z,95972.38
2022-10-16T10:43:01.925Z,95965.47
2022-10-16T10:53:50.174Z,95958.38
2022-10-16T10:59:03.046Z,95951.09
2022-10-16T11:04:29.022Z,95949.72
2022-10-16T11:09:45.437Z,95949.44
2022-10-16T11:15:17.429Z,95947.66
2022-10-16T11:20:26.553Z,95949.34
2022-10-16T11:25:30.999Z,95946.44
2022-10-16T11:30:41.641Z,95928.69
2022-10-16T11:35:49.672Z,95926.19
2022-10-16T11:40:56.686Z,95919.97
2022-10-16T11:46:03.494Z,95916.69
2022-10-16T11:51:17.700Z,95910.47
2022-10-16T11:56:21.076Z,95903.13
2022-10-16T12:01:33.305Z,95909.19
2022-10-16T12:06:59.308Z,95906.91
2022-10-16T12:12:00.778Z,95906.56
2022-10-16T12:17:23.130Z,95901.28
2022-10-16T12:22:24.843Z,95904.97
2022-10-16T12:27:32.763Z,95911.84
2022-10-16T12:32:48.024Z,95909.97
2022-10-16T12:37:50.667Z,95901.75
2022-10-16T12:42:52.451Z,95902.47
2022-10-16T12:47:55.983Z,95897.41
2022-10-16T12:52:58.059Z,95890.19
2022-10-16T12:58:28.660Z,95892.00
2022-10-16T13:04:04.375Z,95889.66
2022-10-16T13:09:36.730Z,95885.66
2022-10-16T13:15:02.909Z,95887.38
2022-10-16T13:20:22.356Z,95886.31
2022-10-16T13:25:58.770Z,95892.09
2022-10-16T13:31:02.037Z,95890.75
2022-10-16T13:36:04.762Z,95886.44
2022-10-16T13:41:15.029Z,95896.53
2022-10-16T13:46:24.075Z,95896.69
2022-10-16T13:51:25.649Z,95892.22
2022-10-16T13:56:30.025Z,95893.81
2022-10-16T14:01:41.528Z,95901.81
2022-10-16T14:06:46.840Z,95894.97
2022-10-16T14:11:55.064Z,95902.94
2022-10-16T14:16:57.119Z,95914.97
2022-10-16T14:22:00.612Z,95912.69
2022-10-16T14:27:02.851Z,95917.63
2022-10-16T14:32:06.602Z,95916.44
2022-10-16T14:37:16.732Z,95921.66
2022-10-16T14:42:20.977Z,95913.19
2022-10-16T14:47:27.310Z,95919.66
2022-10-16T14:52:29.014Z,95914.75
2022-10-16T14:57:34.527Z,95923.53
2022-10-16T15:02:36.710Z,95916.34
2022-10-16T15:07:38.117Z,95922.03
2022-10-16T15:12:39.609Z,95927.81
2022-10-16T15:17:41.022Z,95935.00
2022-10-16T15:22:42.430Z,95932.00
2022-10-16T15:27:43.831Z,95931.66
2022-10-16T15:32:45.238Z,95942.75
2022-10-16T15:37:49.907Z,95949.56
2022-10-16T15:42:51.314Z,95952.06
2022-10-16T15:47:52.725Z,95948.13
2022-10-16T15:52:54.139Z,95951.28
2022-10-16T15:57:55.522Z,95963.41
2022-10-16T16:02:57.142Z,95970.38
2022-10-16T16:07:58.534Z,95962.91
2022-10-16T16:12:59.956Z,95977.22
2022-10-16T16:18:01.410Z,95979.47
2022-10-16T16:23:02.871Z,95986.41
2022-10-16T16:28:04.322Z,95991.69
2022-10-16T16:33:05.753Z,96001.06
2022-10-16T16:38:07.156Z,95999.31
2022-10-16T16:43:08.565Z,96014.88
2022-10-16T16:48:10.061Z,96012.41
2022-10-16T16:53:11.475Z,96024.63
2022-10-16T16:58:12.915Z,96026.69
2022-10-16T17:03:14.307Z,96044.34
2022-10-16T17:08:15.704Z,96058.78
2022-10-16T17:13:17.139Z,96061.28
2022-10-16T17:18:18.807Z,96075.03
2022-10-16T17:23:20.334Z,96085.25
2022-10-16T17:28:21.890Z,96096.13
2022-10-16T17:33:23.332Z,96097.34
2022-10-16T17:38:24.851Z,96099.88
2022-10-16T17:43:26.304Z,96110.88
2022-10-16T17:48:27.710Z,96121.69
2022-10-16T17:53:29.329Z,96128.75
2022-10-16T17:58:31.103Z,96133.47
2022-10-16T18:03:32.483Z,96143.94
2022-10-16T18:08:34.010Z,96143.22
2022-10-16T18:13:35.768Z,96158.75
2022-10-16T18:18:38.388Z,96156.81
2022-10-16T18:23:40.438Z,96158.88
2022-10-16T18:28:42.851Z,96170.28
2022-10-16T18:33:46.208Z,96165.19
2022-10-16T18:38:48.404Z,96164.63
2022-10-16T18:43:49.824Z,96177.00
2022-10-16T18:48:52.016Z,96176.78
2022-10-16T18:53:57.812Z,96178.97
2022-10-16T18:59:01.159Z,96185.94
2022-10-16T19:04:05.734Z,96186.09
2022-10-16T19:09:07.301Z,96195.63
2022-10-16T19:14:10.657Z,96189.13
2022-10-16T19:19:15.427Z,96197.56
2022-10-16T19:24:17.260Z,96199.09
2022-10-16T19:29:19.379Z,96206.31
2022-10-16T19:34:20.765Z,96210.06
2022-10-16T19:39:22.451Z,96219.22
2022-10-16T19:44:23.842Z,96217.41
2022-10-16T19:49:25.229Z,96219.28
2022-10-16T19:54:26.627Z,96222.81
2022-10-16T19:59:28.096Z,96237.47
2022-10-16T20:04:29.483Z,96241.78
2022-10-16T20:09:33.206Z,96250.47
2022-10-16T20:14:34.675Z,96249.13
2022-10-16T20:19:36.154Z,96250.75
2022-10-16T20:24:37.673Z,96241.09
2022-10-16T20:29:39.170Z,96253.13
2022-10-16T20:34:40.579Z,96246.06
2022-10-16T20:39:42.030Z,96253.56
2022-10-16T20:44:45.818Z,96257.13
2022-10-16T20:49:49.377Z,96256.81
2022-10-16T20:54:50.782Z,96256.78
2022-10-16T20:59:52.203Z,96267.22
2022-10-16T21:04:53.750Z,96275.53
2022-10-16T21:09:56.570Z,96287.53
2022-10-16T21:15:13.893Z,96289.19
2022-10-16T21:20:16.752Z,96295.97
2022-10-16T21:25:18.272Z,96294.44
2022-10-16T21:30:19.690Z,96299.75
2022-10-16T21:35:21.135Z,96300.09
2022-10-16T21:40:22.525Z,96307.97
2022-10-16T21:45:24.189Z,96311.41
2022-10-16T21:50:25.721Z,96313.69
2022-10-16T21:55:27.164Z,96311.69
2022-10-16T22:00:28.628Z,96310.59
2022-10-16T22:05:30.024Z,96313.38
2022-10-16T22:10:31.926Z,96313.56
2022-10-16T22:15:33.354Z,96313.66
2022-10-16T22:20:34.792Z,96312.97
2022-10-16T22:25:36.202Z,96318.19
2022-10-16T22:30:39.266Z,96318.34
2022-10-16T22:35:41.009Z,96325.88
2022-10-16T22:40:42.414Z,96320.94
2022-10-16T22:45:43.847Z,96314.78
2022-10-16T22:50:45.238Z,96325.03
2022-10-16T22:55:46.621Z,96318.19
2022-10-16T23:00:48.632Z,96322.19
2022-10-16T23:05:50.335Z,96324.31
2022-10-16T23:10:51.759Z,96328.25
2022-10-16T23:15:53.199Z,96326.03
2022-10-16T23:20:54.610Z,96329.00
2022-10-16T23:25:56.021Z,96341.81
2022-10-16T23:30:57.450Z,96335.97
2022-10-16T23:35:58.894Z,96339.84
2022-10-16T23:41:00.469Z,96335.47
2022-10-16T23:46:02.894Z,96329.66
2022-10-16T23:51:08.202Z,96339.59
2022-10-16T23:56:09.984Z,96342.00
